Time;durP1;ratioP1;P1;durP2;ratioP2;P2;SDS_P1;SDS_P2;PMS_P1;PMS_P2;Temp;Humidity;BMP_temperature;BMP_pressure;BME280_temperature;BME280_humidity;BME280_pressure;Samples;Min_cycle;Max_cycle;Signal;HPM_P1;HPM_P2
2022/08/28 00:00:42;;;;;;;11.57;4.22;;;19.00;99.90;;;;;;5022034;28;20192;-70
2022/08/28 00:03:10;;;;;;;9.98;4.05;;;18.90;99.90;;;;;;5021837;28;20200;-69
2022/08/28 00:05:38;;;;;;;11.73;3.95;;;19.00;99.90;;;;;;5020759;28;20261;-71
2022/08/28 00:08:07;;;;;;;6.50;4.05;;;19.00;99.90;;;;;;5000145;28;20228;-71
2022/08/28 00:10:38;;;;;;;13.18;4.25;;;18.70;99.90;;;;;;4991539;28;20601;-68
2022/08/28 00:13:07;;;;;;;13.23;4.00;;;18.70;99.90;;;;;;5016113;28;20278;-70
2022/08/28 00:15:37;;;;;;;11.50;4.65;;;18.80;99.90;;;;;;4984165;28;20683;-70
2022/08/28 00:18:06;;;;;;;12.23;4.30;;;18.90;99.90;;;;;;5018842;28;20753;-70
2022/08/28 00:20:35;;;;;;;13.15;4.45;;;18.90;99.90;;;;;;4998436;28;20220;-71
2022/08/28 00:23:04;;;;;;;12.00;4.55;;;18.90;99.90;;;;;;5017079;28;20210;-73
2022/08/28 00:25:32;;;;;;;11.30;4.38;;;18.70;99.90;;;;;;5016780;28;20208;-71
2022/08/28 00:28:05;;;;;;;11.63;4.65;;;18.60;99.90;;;;;;5018129;28;20254;-69
2022/08/28 00:30:47;;;;;;;13.45;4.80;;;18.80;99.90;;;;;;5002389;28;20215;-70
2022/08/28 00:33:24;;;;;;;15.82;4.78;;;19.10;99.90;;;;;;5020511;28;20291;-73
2022/08/28 00:35:51;;;;;;;13.60;4.85;;;19.10;99.90;;;;;;5002234;28;20319;-70
2022/08/28 00:38:19;;;;;;;13.45;4.78;;;19.00;99.90;;;;;;5018680;28;20948;-71
2022/08/28 00:40:50;;;;;;;12.52;4.30;;;19.00;99.90;;;;;;5007887;28;20192;-73
2022/08/28 00:43:32;;;;;;;15.25;4.50;;;19.00;99.90;;;;;;5021412;28;20614;-71
2022/08/28 00:46:01;;;;;;;12.00;4.38;;;19.00;99.90;;;;;;5002429;28;20254;-72
2022/08/28 00:48:28;;;;;;;16.70;4.60;;;18.90;99.90;;;;;;5002516;28;20690;-69
2022/08/28 00:53:42;;;;;;;10.13;4.43;;;18.60;99.90;;;;;;5019918;28;20200;-73
2022/08/28 00:56:11;;;;;;;9.00;4.20;;;18.70;99.90;;;;;;5019880;28;20196;-74
2022/08/28 00:58:42;;;;;;;11.48;4.82;;;18.80;99.90;;;;;;5021151;28;20200;-71
2022/08/28 01:01:11;;;;;;;10.13;4.07;;;18.90;99.90;;;;;;5003742;28;20204;-74
2022/08/28 01:03:39;;;;;;;13.30;5.03;;;18.90;99.90;;;;;;4985580;28;20667;-73
2022/08/28 01:06:07;;;;;;;16.45;6.93;;;19.10;99.90;;;;;;5014551;28;20199;-69
2022/08/28 01:08:37;;;;;;;15.85;5.85;;;19.00;99.90;;;;;;4988221;28;20212;-70
2022/08/28 01:11:06;;;;;;;12.60;5.78;;;19.00;99.90;;;;;;5022233;28;20255;-72
2022/08/28 01:13:37;;;;;;;14.85;5.45;;;18.80;99.90;;;;;;5015867;28;20220;-76
2022/08/28 01:16:05;;;;;;;15.50;6.30;;;18.80;99.90;;;;;;5019758;28;20204;-73
2022/08/28 01:18:33;;;;;;;15.77;6.00;;;18.70;99.90;;;;;;5007518;28;20196;-71
2022/08/28 01:21:16;;;;;;;13.98;5.05;;;18.60;99.90;;;;;;5002357;28;20196;-73
2022/08/28 01:23:55;;;;;;;18.48;4.85;;;18.60;99.90;;;;;;5020597;28;20275;-72
2022/08/28 01:26:24;;;;;;;11.07;4.45;;;18.70;99.90;;;;;;5022050;28;20250;-73
2022/08/28 01:28:51;;;;;;;10.65;4.38;;;18.70;99.90;;;;;;5004589;28;20208;-70
2022/08/28 01:31:20;;;;;;;12.80;4.53;;;18.70;99.90;;;;;;5021593;28;20709;-71
2022/08/28 01:33:47;;;;;;;13.60;4.38;;;18.60;99.90;;;;;;5006823;28;20205;-68
2022/08/28 01:36:16;;;;;;;14.05;5.00;;;18.70;99.90;;;;;;5019160;28;20248;-66
2022/08/28 01:38:46;;;;;;;17.85;5.10;;;18.50;99.90;;;;;;5002018;28;20181;-70
2022/08/28 01:41:15;;;;;;;11.50;5.13;;;18.50;99.90;;;;;;5017659;28;20203;-68
2022/08/28 01:43:42;;;;;;;10.48;4.22;;;18.50;99.90;;;;;;5020525;28;20203;-67
2022/08/28 01:46:11;;;;;;;13.73;4.65;;;18.50;99.90;;;;;;5003864;28;20277;-69
2022/08/28 01:48:42;;;;;;;13.48;4.53;;;18.60;99.90;;;;;;4984891;28;20199;-67
2022/08/28 01:51:11;;;;;;;14.13;4.78;;;18.60;99.90;;;;;;5017902;28;20250;-67
2022/08/28 01:53:38;;;;;;;11.98;4.40;;;18.50;99.90;;;;;;5006819;28;20270;-75
2022/08/28 01:56:11;;;;;;;12.63;4.80;;;18.50;99.90;;;;;;5003697;28;20191;-71
2022/08/28 01:58:39;;;;;;;11.98;4.85;;;18.40;99.90;;;;;;5000424;28;20196;-73
2022/08/28 02:01:10;;;;;;;10.70;3.90;;;18.40;99.90;;;;;;5002745;28;20223;-70
2022/08/28 02:03:38;;;;;;;13.00;4.15;;;18.40;99.90;;;;;;5000855;28;20201;-72
2022/08/28 02:06:05;;;;;;;8.20;4.40;;;18.30;99.90;;;;;;5016578;28;20703;-70
2022/08/28 02:08:32;;;;;;;9.90;4.25;;;18.30;99.90;;;;;;5019774;28;20292;-72
2022/08/28 02:10:59;;;;;;;15.13;5.05;;;18.40;99.90;;;;;;5018134;28;20212;-76
2022/08/28 02:13:27;;;;;;;14.80;5.03;;;18.30;99.90;;;;;;5016931;28;20219;-70
2022/08/28 02:15:54;;;;;;;11.70;4.75;;;18.20;99.90;;;;;;5007522;28;20219;-71
2022/08/28 02:18:21;;;;;;;10.25;4.50;;;18.10;99.90;;;;;;5000222;28;20279;-66
2022/08/28 02:20:48;;;;;;;13.05;4.45;;;18.00;99.90;;;;;;5000798;28;20227;-67
2022/08/28 02:23:15;;;;;;;11.95;4.82;;;18.00;99.90;;;;;;5019016;28;20204;-64
2022/08/28 02:25:42;;;;;;;10.15;4.47;;;18.00;99.90;;;;;;5002028;28;20258;-67
2022/08/28 02:28:09;;;;;;;14.32;4.70;;;17.90;99.90;;;;;;5017211;28;20197;-67
2022/08/28 02:30:36;;;;;;;9.00;4.25;;;17.80;99.90;;;;;;5018839;28;20204;-64
2022/08/28 02:33:03;;;;;;;9.98;4.90;;;17.80;99.90;;;;;;5017847;28;20208;-64
2022/08/28 02:35:31;;;;;;;8.93;4.30;;;17.80;99.90;;;;;;5018585;28;20712;-65
2022/08/28 02:37:58;;;;;;;13.00;4.47;;;17.70;99.90;;;;;;5016985;28;20416;-66
2022/08/28 02:40:27;;;;;;;10.02;4.20;;;17.70;99.90;;;;;;5021018;28;20192;-66
2022/08/28 02:42:54;;;;;;;12.93;4.68;;;17.70;99.90;;;;;;5001132;28;20211;-70
2022/08/28 02:45:21;;;;;;;8.60;4.10;;;17.70;99.90;;;;;;5003965;28;20209;-69
2022/08/28 02:47:51;;;;;;;15.07;5.47;;;17.70;99.90;;;;;;5013777;28;20586;-69
2022/08/28 02:50:20;;;;;;;15.20;4.80;;;17.70;99.90;;;;;;5002357;28;20203;-67
2022/08/28 02:52:47;;;;;;;11.48;4.30;;;17.60;99.90;;;;;;5019088;28;20201;-68
2022/08/28 02:55:16;;;;;;;12.20;4.88;;;17.50;99.90;;;;;;5018598;28;20211;-67
2022/08/28 02:57:44;;;;;;;13.48;4.95;;;17.50;99.90;;;;;;5017526;28;20201;-69
2022/08/28 03:00:15;;;;;;;12.13;5.20;;;17.50;99.90;;;;;;5016218;28;20242;-69
2022/08/28 03:02:44;;;;;;;11.60;4.85;;;17.50;99.90;;;;;;5001806;28;20548;-67
2022/08/28 03:05:14;;;;;;;16.92;5.28;;;17.40;99.90;;;;;;5007309;28;20687;-68
2022/08/28 03:07:41;;;;;;;12.45;4.47;;;17.40;99.90;;;;;;5005735;28;20196;-67
2022/08/28 03:10:09;;;;;;;9.40;4.38;;;17.30;99.90;;;;;;5007673;28;20254;-69
2022/08/28 03:12:37;;;;;;;8.60;4.28;;;17.30;99.90;;;;;;5021478;28;20204;-68
2022/08/28 03:15:06;;;;;;;12.63;4.78;;;17.30;99.90;;;;;;5011130;28;20260;-69
2022/08/28 03:17:35;;;;;;;14.63;4.50;;;17.30;99.90;;;;;;5022182;28;20204;-73
2022/08/28 03:20:07;;;;;;;11.98;4.90;;;17.30;99.90;;;;;;5003571;28;20207;-72
2022/08/28 03:25:21;;;;;;;9.63;4.80;;;17.20;99.90;;;;;;5021013;28;20189;-72
2022/08/28 03:27:48;;;;;;;11.82;4.55;;;17.20;99.90;;;;;;5018419;28;20224;-74
2022/08/28 03:30:17;;;;;;;11.50;4.00;;;17.20;99.90;;;;;;4991243;28;20197;-73
2022/08/28 03:32:44;;;;;;;11.55;4.45;;;17.20;99.90;;;;;;5019619;28;20857;-70
2022/08/28 03:35:11;;;;;;;15.25;4.93;;;17.20;99.90;;;;;;5020499;28;20212;-71
2022/08/28 03:37:38;;;;;;;15.05;5.30;;;17.20;99.90;;;;;;5020562;28;20263;-73
2022/08/28 03:40:07;;;;;;;9.05;4.60;;;17.20;99.90;;;;;;5019666;28;20209;-74
2022/08/28 03:42:34;;;;;;;13.63;4.72;;;17.20;99.90;;;;;;5004437;28;20663;-72
2022/08/28 03:45:04;;;;;;;12.07;4.57;;;17.30;99.90;;;;;;5004023;28;20236;-70
2022/08/28 03:47:31;;;;;;;10.80;4.47;;;17.20;99.90;;;;;;5018242;28;20202;-72
2022/08/28 03:49:59;;;;;;;14.20;5.75;;;17.10;99.90;;;;;;5018496;28;20189;-73
2022/08/28 03:52:26;;;;;;;14.90;5.03;;;17.10;99.90;;;;;;4998292;28;20203;-73
2022/08/28 03:54:53;;;;;;;11.73;6.40;;;16.90;99.90;;;;;;5005341;28;20208;-73
2022/08/28 03:57:21;;;;;;;12.98;5.90;;;17.00;1.00;;;;;;5005486;28;20242;-71
2022/08/28 03:59:50;;;;;;;14.20;5.05;;;16.90;1.00;;;;;;5018698;28;20213;-72
2022/08/28 04:02:19;;;;;;;12.98;5.13;;;16.90;1.00;;;;;;5017137;28;20251;-72
2022/08/28 04:04:49;;;;;;;11.85;4.80;;;16.90;1.00;;;;;;5020759;28;20248;-69
2022/08/28 04:07:18;;;;;;;8.68;4.13;;;16.90;1.00;;;;;;5015910;28;20252;-65
2022/08/28 04:09:46;;;;;;;12.30;4.75;;;16.80;1.00;;;;;;5000501;28;20224;-66
2022/08/28 04:12:14;;;;;;;7.47;4.45;;;16.80;1.00;;;;;;4998187;28;20199;-69
2022/08/28 04:14:41;;;;;;;18.63;8.82;;;16.80;1.00;;;;;;5013553;28;20623;-70
2022/08/28 04:17:08;;;;;;;15.65;8.55;;;16.70;1.00;;;;;;5021892;28;20527;-70
2022/08/28 04:19:36;;;;;;;16.80;9.48;;;16.90;1.00;;;;;;5018684;28;20204;-72
2022/08/28 04:22:03;;;;;;;16.45;8.73;;;16.90;1.00;;;;;;5020324;28;20189;-68
2022/08/28 04:24:30;;;;;;;19.25;8.45;;;16.90;1.00;;;;;;5009714;28;20797;-70
2022/08/28 04:26:57;;;;;;;14.90;6.85;;;16.80;1.00;;;;;;5018735;28;20315;-68
2022/08/28 04:29:24;;;;;;;11.80;5.72;;;16.70;1.00;;;;;;5019995;28;20262;-68
2022/08/28 04:31:51;;;;;;;10.73;5.57;;;16.70;1.00;;;;;;5019359;28;20921;-68
2022/08/28 04:34:18;;;;;;;13.07;5.10;;;16.70;1.00;;;;;;5016108;28;20251;-68
2022/08/28 04:36:48;;;;;;;13.32;5.57;;;16.70;1.00;;;;;;5019168;28;20196;-69
2022/08/28 04:39:15;;;;;;;14.20;5.63;;;16.70;1.00;;;;;;5002367;28;20279;-71
2022/08/28 04:41:42;;;;;;;13.93;6.13;;;16.60;1.00;;;;;;5000176;28;20223;-70
2022/08/28 04:44:09;;;;;;;14.60;6.15;;;16.70;1.00;;;;;;4999756;28;20203;-70
2022/08/28 04:46:37;;;;;;;15.30;6.18;;;16.80;1.00;;;;;;5015965;28;20671;-70
2022/08/28 04:49:04;;;;;;;11.93;5.15;;;16.90;1.00;;;;;;4999942;28;21137;-70
2022/08/28 04:51:32;;;;;;;13.70;5.72;;;17.00;1.00;;;;;;5015674;28;23843;-69
2022/08/28 04:54:01;;;;;;;17.17;7.93;;;17.00;1.00;;;;;;4999098;28;20251;-69
2022/08/28 04:56:28;;;;;;;14.60;7.03;;;17.00;1.00;;;;;;5018442;28;20386;-69
2022/08/28 04:58:55;;;;;;;16.45;5.93;;;17.00;1.00;;;;;;4999984;28;20231;-69
2022/08/28 05:01:23;;;;;;;11.18;4.55;;;17.10;1.00;;;;;;5005358;28;20230;-69
2022/08/28 05:03:57;;;;;;;10.63;4.95;;;17.00;1.00;;;;;;5005011;28;20212;-67
2022/08/28 05:06:27;;;;;;;11.13;3.95;;;17.10;1.00;;;;;;5007764;28;20203;-72
2022/08/28 05:08:59;;;;;;;12.32;4.95;;;17.10;1.00;;;;;;5003820;28;20200;-73
2022/08/28 05:11:28;;;;;;;8.68;4.20;;;17.10;1.00;;;;;;5020175;28;20250;-70
2022/08/28 05:14:00;;;;;;;10.15;4.32;;;17.10;1.00;;;;;;5001604;28;20258;-69
2022/08/28 05:16:27;;;;;;;10.85;4.22;;;17.10;1.00;;;;;;5019456;28;20208;-69
2022/08/28 05:18:59;;;;;;;11.35;4.78;;;17.10;1.00;;;;;;5009874;28;20216;-71
2022/08/28 05:21:27;;;;;;;9.95;4.15;;;17.10;1.00;;;;;;5000480;28;20207;-77
2022/08/28 05:23:56;;;;;;;13.27;4.65;;;17.10;1.00;;;;;;5000890;28;20218;-77
2022/08/28 05:26:23;;;;;;;10.73;4.47;;;17.30;99.90;;;;;;4997585;28;20320;-77
2022/08/28 05:28:55;;;;;;;7.00;3.80;;;17.20;99.90;;;;;;5000888;28;20196;-78
2022/08/28 05:31:23;;;;;;;10.10;4.00;;;17.20;99.90;;;;;;5021278;28;20197;-74
2022/08/28 05:33:52;;;;;;;10.18;4.28;;;17.20;99.90;;;;;;5003549;28;20235;-76
2022/08/28 05:36:22;;;;;;;12.13;4.10;;;17.30;99.90;;;;;;5018163;28;20217;-76
2022/08/28 05:38:55;;;;;;;9.27;4.03;;;17.40;99.90;;;;;;5016464;28;20204;-74
2022/08/28 05:41:25;;;;;;;8.48;4.05;;;17.50;99.90;;;;;;5019746;28;20185;-76
2022/08/28 05:43:53;;;;;;;10.23;4.03;;;17.60;99.90;;;;;;4999188;28;20204;-66
2022/08/28 05:46:21;;;;;;;10.82;3.95;;;17.80;99.90;;;;;;5004382;28;20783;-71
2022/08/28 05:48:48;;;;;;;27.98;4.55;;;18.20;99.90;;;;;;5007632;28;20233;-72
2022/08/28 05:51:19;;;;;;;13.98;3.83;;;18.60;99.90;;;;;;5007475;28;20204;-72
2022/08/28 05:53:48;;;;;;;11.43;3.40;;;18.90;99.90;;;;;;5015574;28;20270;-72
2022/08/28 05:56:22;;;;;;;6.60;3.10;;;19.00;99.90;;;;;;5014715;28;22505;-74
2022/08/28 05:58:50;;;;;;;9.52;3.83;;;19.30;99.90;;;;;;5001791;28;20187;-72
2022/08/28 06:01:44;;;;;;;8.23;4.15;;;20.10;99.90;;;;;;5023126;28;20595;-74
2022/08/28 06:04:25;;;;;;;15.55;4.72;;;21.50;43.40;;;;;;4996604;28;20240;-73
2022/08/28 06:06:53;;;;;;;12.85;3.50;;;21.20;24.60;;;;;;5002313;28;20211;-74
2022/08/28 06:09:23;;;;;;;12.35;3.90;;;20.80;26.60;;;;;;5017893;28;20196;-73
2022/08/28 06:11:58;;;;;;;11.02;3.83;;;20.60;27.80;;;;;;5015378;28;20189;-70
2022/08/28 06:14:26;;;;;;;8.30;4.03;;;20.50;34.70;;;;;;5014294;28;20282;-70
2022/08/28 06:16:54;;;;;;;10.82;3.70;;;20.50;30.40;;;;;;5015060;28;20192;-70
2022/08/28 06:19:24;;;;;;;9.38;3.83;;;20.60;29.50;;;;;;5017255;28;20266;-70
2022/08/28 06:21:54;;;;;;;6.68;3.25;;;20.70;28.40;;;;;;5013966;28;20208;-70
2022/08/28 06:24:21;;;;;;;8.85;3.80;;;20.40;31.40;;;;;;5017078;28;20201;-70
2022/08/28 06:26:48;;;;;;;9.05;3.72;;;21.00;23.30;;;;;;5018733;28;20286;-70
2022/08/28 06:29:17;;;;;;;8.98;3.80;;;21.10;15.00;;;;;;5020723;28;20192;-67
2022/08/28 06:31:51;;;;;;;10.50;3.40;;;21.10;12.40;;;;;;5015510;28;20556;-70
2022/08/28 06:34:19;;;;;;;9.65;3.15;;;20.90;13.10;;;;;;5017664;28;20189;-70
2022/08/28 06:36:46;;;;;;;11.45;4.05;;;20.60;16.20;;;;;;5005205;28;20663;-69
2022/08/28 06:39:20;;;;;;;8.48;3.17;;;20.30;20.30;;;;;;5002577;28;20601;-69
2022/08/28 06:41:47;;;;;;;9.32;3.15;;;20.60;20.60;;;;;;5011228;28;20204;-69
2022/08/28 06:44:18;;;;;;;7.68;3.40;;;21.10;13.50;;;;;;5019823;28;20189;-71
2022/08/28 06:46:51;;;;;;;10.75;4.13;;;22.40;1.00;;;;;;5021247;28;20224;-71
2022/08/28 06:49:18;;;;;;;11.13;6.05;;;23.60;1.00;;;;;;5004600;28;20595;-73
2022/08/28 06:51:45;;;;;;;17.88;7.38;;;25.00;1.00;;;;;;5010338;28;20229;-74
2022/08/28 06:54:14;;;;;;;8.20;4.25;;;24.50;1.00;;;;;;5004974;28;20207;-73
2022/08/28 06:56:48;;;;;;;12.70;5.95;;;24.20;1.00;;;;;;5012887;28;20211;-73
2022/08/28 06:59:15;;;;;;;9.00;4.22;;;23.90;1.00;;;;;;5020542;28;20202;-73
2022/08/28 07:01:42;;;;;;;8.05;3.92;;;22.90;1.00;;;;;;5022907;28;20196;-72
2022/08/28 07:04:10;;;;;;;9.35;4.03;;;22.60;1.00;;;;;;5015357;28;20223;-71
2022/08/28 07:06:42;;;;;;;10.57;4.22;;;22.60;1.00;;;;;;5043530;28;20206;-72
2022/08/28 07:09:10;;;;;;;9.55;4.28;;;22.80;1.00;;;;;;5036750;28;20284;-72
2022/08/28 07:11:38;;;;;;;13.10;4.20;;;22.70;1.00;;;;;;5043531;28;20196;-73
2022/08/28 07:14:06;;;;;;;7.97;3.63;;;22.60;1.00;;;;;;5037914;28;20253;-70
2022/08/28 07:16:37;;;;;;;8.55;3.15;;;22.70;1.00;;;;;;5036762;28;20660;-71
2022/08/28 07:19:06;;;;;;;10.38;3.40;;;22.20;1.00;;;;;;5055936;28;20204;-75
2022/08/28 07:21:34;;;;;;;8.30;3.00;;;21.50;1.00;;;;;;5047361;28;20200;-74
2022/08/28 07:24:05;;;;;;;8.88;3.45;;;21.20;1.00;;;;;;5021663;28;20196;-73
2022/08/28 07:26:33;;;;;;;8.77;3.63;;;21.20;1.00;;;;;;5038512;28;20216;-73
2022/08/28 07:29:03;;;;;;;9.13;4.22;;;21.50;1.00;;;;;;5037356;28;20227;-68
2022/08/28 07:31:39;;;;;;;12.02;5.15;;;22.00;1.00;;;;;;5040980;28;20191;-73
2022/08/28 07:34:08;;;;;;;13.18;4.55;;;22.50;1.00;;;;;;5057583;28;20212;-73
2022/08/28 07:36:35;;;;;;;11.05;3.88;;;22.80;1.00;;;;;;5045662;28;20207;-74
2022/08/28 07:39:04;;;;;;;12.68;3.80;;;23.00;1.00;;;;;;5042706;28;20249;-73
2022/08/28 07:41:34;;;;;;;6.88;3.38;;;23.40;1.00;;;;;;5041409;28;20203;-71
2022/08/28 07:46:47;;;;;;;12.68;2.83;;;23.40;1.00;;;;;;5042331;28;20203;-72
2022/08/28 07:49:15;;;;;;;10.57;3.50;;;23.10;1.00;;;;;;5053480;28;20703;-72
2022/08/28 07:51:43;;;;;;;7.15;2.90;;;22.80;1.00;;;;;;5029373;28;20195;-73
2022/08/28 07:54:14;;;;;;;12.20;3.20;;;23.30;1.00;;;;;;5039674;28;20184;-75
2022/08/28 07:56:44;;;;;;;14.75;3.55;;;23.90;1.00;;;;;;5042914;28;20211;-71
2022/08/28 07:59:12;;;;;;;6.78;2.78;;;25.50;1.00;;;;;;5041322;28;20199;-71
2022/08/28 08:01:47;;;;;;;7.25;2.85;;;26.90;1.00;;;;;;5054319;28;20187;-72
2022/08/28 08:04:16;;;;;;;7.65;2.60;;;27.40;1.00;;;;;;5034016;28;20233;-74
2022/08/28 08:06:43;;;;;;;7.38;3.20;;;28.20;1.00;;;;;;5021583;28;20263;-74
2022/08/28 08:09:13;;;;;;;7.18;2.65;;;28.40;1.00;;;;;;5011368;28;20565;-74
2022/08/28 08:11:41;;;;;;;10.77;2.92;;;30.80;1.00;;;;;;5002745;28;20247;-73
2022/08/28 08:14:08;;;;;;;15.38;3.65;;;33.60;1.00;;;;;;5013707;28;20270;-72
2022/08/28 08:16:39;;;;;;;9.82;3.15;;;30.90;1.00;;;;;;5004645;28;20220;-73
2022/08/28 08:19:12;;;;;;;10.93;2.90;;;30.10;1.00;;;;;;5003929;28;20201;-74
2022/08/28 08:21:44;;;;;;;9.82;3.13;;;27.80;1.00;;;;;;5023895;28;20192;-74
2022/08/28 08:24:14;;;;;;;12.77;3.53;;;26.50;1.00;;;;;;5006814;28;20205;-74
2022/08/28 08:26:48;;;;;;;9.63;3.13;;;25.40;1.00;;;;;;5018277;28;20219;-73
2022/08/28 08:29:30;;;;;;;7.30;2.95;;;24.20;1.00;;;;;;5021627;28;20199;-74
2022/08/28 08:32:04;;;;;;;8.23;2.80;;;23.40;1.00;;;;;;5021738;28;20205;-74
2022/08/28 08:34:35;;;;;;;11.02;2.92;;;22.80;1.00;;;;;;5005369;28;20214;-74
2022/08/28 08:37:04;;;;;;;10.90;4.20;;;23.30;1.00;;;;;;5012059;28;20281;-74
2022/08/28 08:39:32;;;;;;;9.90;3.55;;;23.80;1.00;;;;;;5011174;28;20196;-74
2022/08/28 08:42:02;;;;;;;7.15;3.03;;;28.90;1.00;;;;;;5008622;28;20207;-74
2022/08/28 08:44:29;;;;;;;11.68;3.03;;;33.30;1.00;;;;;;5002899;28;20224;-73
2022/08/28 08:47:21;;;;;;;10.93;3.42;;;36.80;1.00;;;;;;5000694;28;20795;-74
2022/08/28 08:49:53;;;;;;;6.75;2.97;;;37.70;1.00;;;;;;5004890;28;20204;-72
2022/08/28 08:52:35;;;;;;;6.18;2.90;;;36.60;1.00;;;;;;5019543;28;20250;-74
2022/08/28 08:55:23;;;;;;;9.43;3.05;;;35.30;1.00;;;;;;5018419;28;20270;-74
2022/08/28 08:57:56;;;;;;;11.45;3.10;;;35.00;1.00;;;;;;5008368;28;20239;-74
2022/08/28 09:00:23;;;;;;;7.55;2.53;;;31.90;1.00;;;;;;5017226;28;20210;-74
2022/08/28 09:03:13;;;;;;;9.05;3.08;;;35.80;1.00;;;;;;5005347;28;20603;-73
2022/08/28 09:05:47;;;;;;;6.20;2.55;;;38.30;1.00;;;;;;5029618;28;20231;-74
2022/08/28 09:08:46;;;;;;;6.93;3.00;;;31.90;1.00;;;;;;5036107;28;20249;-71
2022/08/28 09:11:32;;;;;;;7.95;3.60;;;32.90;1.00;;;;;;5036442;28;20242;-74
2022/08/28 09:14:34;;;;;;;9.43;3.13;;;37.10;1.00;;;;;;5036655;28;20203;-69
2022/08/28 09:17:01;;;;;;;7.32;3.15;;;36.60;1.00;;;;;;5017286;28;20273;-70
2022/08/28 09:19:29;;;;;;;5.22;2.30;;;42.00;1.00;;;;;;5037201;28;20200;-71
2022/08/28 09:21:56;;;;;;;8.77;2.92;;;42.70;1.00;;;;;;5035309;28;20207;-69
2022/08/28 09:24:27;;;;;;;8.38;3.15;;;42.60;1.00;;;;;;5036567;28;20194;-73
2022/08/28 09:27:03;;;;;;;8.57;3.30;;;38.50;1.00;;;;;;5035768;28;20345;-71
2022/08/28 09:29:34;;;;;;;7.60;2.40;;;33.60;1.00;;;;;;5036457;28;20187;-69
2022/08/28 09:32:42;;;;;;;9.52;3.03;;;31.60;1.00;;;;;;5032835;28;20239;-72
2022/08/28 09:35:29;;;;;;;8.20;2.85;;;30.80;1.00;;;;;;5035327;28;20199;-69
2022/08/28 09:38:16;;;;;;;7.15;2.70;;;35.40;1.00;;;;;;5038149;28;20226;-71
2022/08/28 09:43:32;;;;;;;8.80;2.78;;;35.20;1.00;;;;;;5036891;28;20195;-69
2022/08/28 09:46:00;;;;;;;3.30;2.20;;;39.20;1.00;;;;;;5032686;28;20242;-72
2022/08/28 09:48:31;;;;;;;6.07;2.53;;;38.00;1.00;;;;;;5031738;28;20200;-66
2022/08/28 09:51:02;;;;;;;10.23;3.15;;;37.30;1.00;;;;;;5036323;28;20198;-73
2022/08/28 09:53:34;;;;;;;4.93;2.58;;;38.80;1.00;;;;;;5038085;28;20286;-76
2022/08/28 09:56:25;;;;;;;5.28;2.28;;;38.40;1.00;;;;;;5041744;28;20219;-75
2022/08/28 09:58:58;;;;;;;6.95;2.58;;;37.50;1.00;;;;;;5043830;28;20222;-75
2022/08/28 10:01:40;;;;;;;6.07;2.60;;;38.60;1.00;;;;;;5040561;28;20199;-73
2022/08/28 10:04:18;;;;;;;5.80;2.83;;;39.50;1.00;;;;;;5056136;28;20242;-72
2022/08/28 10:06:53;;;;;;;7.78;3.03;;;39.40;1.00;;;;;;5035859;28;20209;-72
2022/08/28 10:09:36;;;;;;;4.43;2.60;;;38.80;1.00;;;;;;5037865;28;20194;-73
2022/08/28 10:12:41;;;;;;;8.77;2.65;;;35.10;1.00;;;;;;5041342;28;20230;-72
2022/08/28 10:15:08;;;;;;;5.50;2.60;;;34.40;1.00;;;;;;5025169;28;20203;-75
2022/08/28 10:18:00;;;;;;;6.75;2.67;;;36.10;1.00;;;;;;5037655;28;20226;-78
2022/08/28 10:20:36;;;;;;;5.55;2.63;;;39.20;1.00;;;;;;5037543;28;20864;-74
2022/08/28 10:23:09;;;;;;;5.03;2.50;;;40.00;1.00;;;;;;5038533;28;20202;-77
2022/08/28 10:25:49;;;;;;;5.88;2.90;;;38.00;1.00;;;;;;5051187;28;20203;-76
2022/08/28 10:28:24;;;;;;;5.07;2.58;;;36.90;1.00;;;;;;5053283;28;20643;-76
2022/08/28 10:31:03;;;;;;;9.25;2.90;;;38.50;1.00;;;;;;5035692;28;20195;-81
2022/08/28 10:33:38;;;;;;;6.40;2.60;;;38.90;1.00;;;;;;5050753;28;20281;-73
2022/08/28 10:36:16;;;;;;;6.22;2.33;;;37.40;1.00;;;;;;5036194;28;20218;-73
2022/08/28 10:39:27;;;;;;;7.65;2.63;;;35.10;1.00;;;;;;5051460;28;20210;-70
2022/08/28 10:41:58;;;;;;;6.82;2.70;;;35.10;1.00;;;;;;5022867;28;20703;-72
2022/08/28 10:44:35;;;;;;;7.72;2.53;;;35.00;1.00;;;;;;5035911;28;20302;-75
2022/08/28 10:47:04;;;;;;;5.70;2.40;;;36.60;1.00;;;;;;5035482;28;20298;-77
2022/08/28 10:49:36;;;;;;;3.67;2.35;;;38.00;1.00;;;;;;5051394;28;20237;-76
2022/08/28 10:52:11;;;;;;;5.25;2.47;;;36.60;1.00;;;;;;5037497;28;20320;-69
2022/08/28 10:54:53;;;;;;;8.63;3.22;;;36.20;1.00;;;;;;5035197;28;20225;-75
2022/08/28 10:57:30;;;;;;;6.20;2.47;;;36.10;1.00;;;;;;5037814;28;20249;-75
2022/08/28 11:00:18;;;;;;;5.22;2.33;;;36.30;1.00;;;;;;5036599;28;20195;-76
2022/08/28 11:02:56;;;;;;;4.15;2.42;;;34.70;1.00;;;;;;5044107;28;20237;-75
2022/08/28 11:05:40;;;;;;;5.05;2.55;;;32.40;1.00;;;;;;5025555;28;20224;-75
2022/08/28 11:08:18;;;;;;;5.45;2.60;;;33.20;1.00;;;;;;5017815;28;20192;-75
2022/08/28 11:10:52;;;;;;;5.68;2.38;;;33.40;1.00;;;;;;5019448;28;20203;-73
2022/08/28 11:14:00;;;;;;;6.35;2.35;;;34.50;1.00;;;;;;5018106;28;20225;-73
2022/08/28 11:16:26;;;;;;;6.03;2.90;;;35.10;1.00;;;;;;4965202;28;20296;-74
2022/08/28 11:19:05;;;;;;;4.70;2.60;;;35.00;1.00;;;;;;5008136;28;20197;-75
2022/08/28 11:21:50;;;;;;;6.68;2.70;;;34.90;1.00;;;;;;5000840;28;20188;-75
2022/08/28 11:24:33;;;;;;;5.03;2.30;;;34.70;1.00;;;;;;5008839;28;21183;-74
2022/08/28 11:27:21;;;;;;;6.35;2.53;;;34.70;1.00;;;;;;5021615;28;20311;-75
2022/08/28 11:30:00;;;;;;;5.50;2.67;;;31.80;1.00;;;;;;5023907;28;20659;-74
2022/08/28 11:32:33;;;;;;;8.98;4.20;;;30.50;1.00;;;;;;5019150;28;20730;-73
2022/08/28 11:35:03;;;;;;;15.70;3.67;;;30.80;1.00;;;;;;5023121;28;20208;-74
2022/08/28 11:37:40;;;;;;;7.45;3.67;;;31.80;1.00;;;;;;5022591;28;20220;-74
2022/08/28 11:40:30;;;;;;;7.18;3.47;;;30.80;1.00;;;;;;5023272;28;20200;-74
2022/08/28 11:43:13;;;;;;;6.10;2.47;;;31.00;1.00;;;;;;5004908;28;20291;-74
2022/08/28 11:45:42;;;;;;;4.93;2.60;;;31.50;1.00;;;;;;5024457;28;20217;-73
2022/08/28 11:48:31;;;;;;;4.93;2.60;;;31.10;1.00;;;;;;5022439;28;20197;-73
2022/08/28 11:51:05;;;;;;;4.45;2.40;;;31.40;1.00;;;;;;5021596;28;20251;-74
2022/08/28 11:54:10;;;;;;;4.43;2.63;;;31.80;1.00;;;;;;5012061;28;20192;-74
2022/08/28 11:56:49;;;;;;;4.63;2.33;;;32.00;1.00;;;;;;5012441;28;20224;-73
2022/08/28 11:59:38;;;;;;;8.48;2.83;;;31.60;1.00;;;;;;5006373;28;20204;-73
2022/08/28 12:02:39;;;;;;;4.70;2.40;;;30.90;1.00;;;;;;5025728;28;20215;-73
2022/08/28 12:05:11;;;;;;;4.97;2.53;;;30.50;1.00;;;;;;5023814;28;20232;-74
2022/08/28 12:07:49;;;;;;;4.70;1.98;;;31.20;1.00;;;;;;5022932;28;20192;-73
2022/08/28 12:10:22;;;;;;;5.28;2.50;;;30.50;1.00;;;;;;5024087;28;20188;-73
2022/08/28 12:13:03;;;;;;;3.65;2.13;;;31.20;1.00;;;;;;5022873;28;20208;-74
2022/08/28 12:15:30;;;;;;;5.70;2.28;;;31.40;1.00;;;;;;5023148;28;20941;-71
2022/08/28 12:18:03;;;;;;;5.78;2.33;;;30.80;1.00;;;;;;5023820;28;20220;-72
2022/08/28 12:20:48;;;;;;;6.40;2.17;;;31.10;1.00;;;;;;5026515;28;20192;-73
2022/08/28 12:23:35;;;;;;;8.63;2.33;;;30.20;1.00;;;;;;5009071;28;20193;-73
2022/08/28 12:26:21;;;;;;;4.45;2.25;;;30.30;1.00;;;;;;5008097;28;20287;-73
2022/08/28 12:29:31;;;;;;;6.90;2.20;;;30.50;1.00;;;;;;5012501;28;20205;-73
2022/08/28 12:32:10;;;;;;;4.65;2.20;;;30.60;1.00;;;;;;5020547;28;20263;-72
2022/08/28 12:34:49;;;;;;;4.57;1.92;;;29.70;1.00;;;;;;5023244;28;20608;-74
2022/08/28 12:37:35;;;;;;;4.45;2.42;;;29.40;1.00;;;;;;5014626;28;20205;-71
2022/08/28 12:40:33;;;;;;;5.03;2.17;;;28.90;1.00;;;;;;5023961;28;20195;-74
2022/08/28 12:43:04;;;;;;;5.40;2.40;;;28.00;1.00;;;;;;5024610;28;20210;-73
2022/08/28 12:45:47;;;;;;;5.88;2.30;;;27.60;1.00;;;;;;5024659;28;20288;-73
2022/08/28 12:48:23;;;;;;;5.78;2.22;;;27.40;1.00;;;;;;5022685;28;20209;-74
2022/08/28 12:51:02;;;;;;;5.63;1.95;;;27.50;1.00;;;;;;5021388;28;20249;-74
2022/08/28 12:53:57;;;;;;;4.32;2.10;;;27.10;1.00;;;;;;5014990;28;20636;-73
2022/08/28 12:56:29;;;;;;;6.60;2.10;;;27.00;1.00;;;;;;5022015;28;20228;-74
2022/08/28 12:59:45;;;;;;;5.93;2.22;;;27.00;1.00;;;;;;5023754;28;20184;-73
2022/08/28 13:02:32;;;;;;;6.05;2.47;;;27.00;1.00;;;;;;5002114;28;20216;-73
2022/08/28 13:05:06;;;;;;;5.05;2.15;;;26.40;1.00;;;;;;5033800;28;20677;-73
2022/08/28 13:07:44;;;;;;;6.65;2.17;;;26.40;1.00;;;;;;5043049;28;20253;-73
2022/08/28 13:10:30;;;;;;;5.53;2.05;;;25.90;1.00;;;;;;5042864;28;20760;-71
2022/08/28 13:13:22;;;;;;;6.15;2.28;;;25.70;1.00;;;;;;5041695;28;20199;-74
2022/08/28 13:15:56;;;;;;;4.70;2.08;;;26.00;1.00;;;;;;5045047;28;20195;-73
2022/08/28 13:18:52;;;;;;;3.63;2.13;;;26.00;1.00;;;;;;5040418;28;20277;-73
2022/08/28 13:21:29;;;;;;;5.43;2.45;;;25.90;1.00;;;;;;5045389;28;20206;-72
2022/08/28 13:24:24;;;;;;;6.05;2.50;;;25.60;1.00;;;;;;5045324;28;20184;-70
2022/08/28 13:27:15;;;;;;;4.72;2.00;;;25.20;1.00;;;;;;5034960;28;20605;-71
2022/08/28 13:29:53;;;;;;;3.78;2.00;;;24.90;1.00;;;;;;5038226;28;20207;-73